Time,TemperatureF,DewpointF,PressureIn,WindDirection,WindDirectionDegrees,WindSpeedMPH,WindSpeedGustMPH,Humidity,HourlyPrecipIn,Conditions,Clouds,dailyrainin,SoftwareType,DateUTC
2013-05-22 00:01:00,60.3,49.8,29.73,NW,315,1.6,3.4,68,0.00,,,0.00,WUHU216HW,2013-05-22 05:01:00,
2013-05-22 00:06:00,60.1,49.6,29.73,NNE,23,1.1,2.5,68,0.00,,,0.00,WUHU216HW,2013-05-22 05:06:00,
2013-05-22 00:11:00,60.1,50.0,29.73,NNW,338,1.3,2.5,69,0.00,,,0.00,WUHU216HW,2013-05-22 05:11:00,
2013-05-22 00:16:00,59.8,49.6,29.74,NNW,338,0.7,1.3,69,0.00,,,0.00,WUHU216HW,2013-05-22 05:16:00,
2013-05-22 00:21:00,59.4,49.7,29.74,NNW,338,0.7,1.1,70,0.00,,,0.00,WUHU216HW,2013-05-22 05:21:00,
2013-05-22 00:26:00,58.7,49.3,29.74,NNW,338,0.7,1.1,71,0.00,,,0.00,WUHU216HW,2013-05-22 05:26:00,
2013-05-22 00:31:00,58.1,48.8,29.74,NNW,338,0.0,1.1,71,0.00,,,0.00,WUHU216HW,2013-05-22 05:31:00,
2013-05-22 00:36:00,57.2,47.9,29.74,NNW,338,0.0,0.7,71,0.00,,,0.00,WUHU216HW,2013-05-22 05:36:00,
2013-05-22 00:41:00,56.5,48.2,29.74,NNW,338,0.0,0.0,74,0.00,,,0.00,WUHU216HW,2013-05-22 05:41:00,
2013-05-22 00:46:00,56.2,48.6,29.74,NNW,338,0.0,0.2,76,0.00,,,0.00,WUHU216HW,2013-05-22 05:46:00,
2013-05-22 00:51:00,55.8,48.0,29.74,NNW,338,0.0,0.2,75,0.00,,,0.00,WUHU216HW,2013-05-22 05:51:00,
2013-05-22 00:56:00,55.3,48.2,29.74,NNW,338,0.0,0.0,77,0.00,,,0.00,WUHU216HW,2013-05-22 05:56:00,
2013-05-22 01:01:00,54.9,48.2,29.74,NNW,338,0.0,0.0,78,0.00,,,0.00,WUHU216HW,2013-05-22 06:01:00,
2013-05-22 01:06:00,54.7,49.0,29.74,NW,315,1.1,1.1,81,0.00,,,0.00,WUHU216HW,2013-05-22 06:06:00,
2013-05-22 01:11:00,54.9,49.1,29.74,WNW,293,1.6,1.6,81,0.00,,,0.00,WUHU216HW,2013-05-22 06:11:00,
2013-05-22 01:16:00,55.3,49.1,29.74,NW,315,0.9,1.8,80,0.00,,,0.00,WUHU216HW,2013-05-22 06:16:00,
2013-05-22 01:21:00,55.4,49.0,29.73,NW,315,0.4,1.8,79,0.00,,,0.00,WUHU216HW,2013-05-22 06:21:00,
2013-05-22 01:26:00,55.3,48.5,29.73,WNW,293,0.0,1.1,78,0.00,,,0.00,WUHU216HW,2013-05-22 06:26:00,
2013-05-22 01:31:00,54.9,48.2,29.73,West,270,0.9,1.3,78,0.00,,,0.00,WUHU216HW,2013-05-22 06:31:00,
2013-05-22 01:36:00,54.7,48.3,29.73,West,270,0.4,1.3,79,0.00,,,0.00,WUHU216HW,2013-05-22 06:36:00,
2013-05-22 01:41:00,54.7,48.7,29.73,West,270,0.4,0.7,80,0.00,,,0.00,WUHU216HW,2013-05-22 06:41:00,
2013-05-22 01:46:00,54.7,48.7,29.73,WNW,293,0.7,1.1,80,0.00,,,0.00,WUHU216HW,2013-05-22 06:46:00,
2013-05-22 01:51:00,54.5,48.5,29.73,NW,315,0.7,1.3,80,0.00,,,0.00,WUHU216HW,2013-05-22 06:51:00,
2013-05-22 01:56:00,54.5,48.9,29.73,WNW,293,1.1,1.3,81,0.00,,,0.00,WUHU216HW,2013-05-22 06:56:00,
2013-05-22 02:01:00,54.7,49.0,29.73,NW,315,1.8,1.8,81,0.00,,,0.00,WUHU216HW,2013-05-22 07:01:00,
2013-05-22 02:06:00,54.9,48.9,29.73,WNW,293,0.4,2.0,80,0.00,,,0.00,WUHU216HW,2013-05-22 07:06:00,
2013-05-22 02:11:00,54.7,48.7,29.73,WNW,293,0.4,2.0,80,0.00,,,0.00,WUHU216HW,2013-05-22 07:11:00,
2013-05-22 02:16:00,54.7,49.3,29.73,NW,315,1.6,1.6,82,0.00,,,0.00,WUHU216HW,2013-05-22 07:16:00,
2013-05-22 02:21:00,55.3,49.5,29.73,NW,315,1.8,1.8,81,0.00,,,0.00,WUHU216HW,2013-05-22 07:21:00,
2013-05-22 02:26:00,55.8,50.1,29.73,NW,315,2.5,2.5,81,0.00,,,0.00,WUHU216HW,2013-05-22 07:26:00,
2013-05-22 02:31:00,56.0,50.2,29.73,NW,315,2.5,2.7,81,0.00,,,0.00,WUHU216HW,2013-05-22 07:31:00,
2013-05-22 02:36:00,56.0,50.2,29.73,NW,315,1.8,2.7,81,0.00,,,0.00,WUHU216HW,2013-05-22 07:36:00,
2013-05-22 02:41:00,55.4,49.3,29.73,WNW,293,1.8,2.2,80,0.00,,,0.00,WUHU216HW,2013-05-22 07:41:00,
2013-05-22 02:46:00,55.4,49.3,29.73,WNW,293,0.9,1.8,80,0.00,,,0.00,WUHU216HW,2013-05-22 07:46:00,
2013-05-22 02:51:00,55.1,49.0,29.73,West,270,1.1,1.8,80,0.00,,,0.00,WUHU216HW,2013-05-22 07:51:00,
2013-05-22 02:56:00,54.9,48.9,29.73,West,270,0.4,1.6,80,0.00,,,0.00,WUHU216HW,2013-05-22 07:56:00,
2013-05-22 03:01:00,54.9,49.1,29.73,West,270,0.4,1.3,81,0.00,,,0.00,WUHU216HW,2013-05-22 08:01:00,
2013-05-22 03:06:00,54.9,49.1,29.73,WNW,293,0.4,1.1,81,0.00,,,0.00,WUHU216HW,2013-05-22 08:06:00,
2013-05-22 03:11:00,54.7,49.6,29.73,NW,315,1.1,1.1,83,0.00,,,0.00,WUHU216HW,2013-05-22 08:11:00,
2013-05-22 03:16:00,54.9,49.5,29.73,NW,315,0.7,1.8,82,0.00,,,0.00,WUHU216HW,2013-05-22 08:16:00,
2013-05-22 03:21:00,54.9,49.8,29.73,NW,315,1.6,1.8,83,0.00,,,0.00,WUHU216HW,2013-05-22 08:21:00,
2013-05-22 03:26:00,55.3,50.1,29.73,NW,315,2.0,2.5,83,0.00,,,0.00,WUHU216HW,2013-05-22 08:26:00,
2013-05-22 03:31:00,55.6,50.5,29.73,NW,315,2.5,3.4,83,0.00,,,0.00,WUHU216HW,2013-05-22 08:31:00,
2013-05-22 03:36:00,56.3,50.6,29.73,NW,315,2.5,3.4,81,0.00,,,0.00,WUHU216HW,2013-05-22 08:36:00,
2013-05-22 03:41:00,56.5,51.0,29.73,WNW,293,2.2,2.7,82,0.00,,,0.00,WUHU216HW,2013-05-22 08:41:00,
2013-05-22 03:46:00,56.7,51.0,29.73,NW,315,2.5,2.7,81,0.00,,,0.00,WUHU216HW,2013-05-22 08:46:00,
2013-05-22 03:51:00,56.9,51.1,29.73,WNW,293,3.1,3.1,81,0.00,,,0.00,WUHU216HW,2013-05-22 08:51:00,
2013-05-22 03:56:00,56.9,51.1,29.73,WNW,293,2.5,4.0,81,0.00,,,0.00,WUHU216HW,2013-05-22 08:56:00,
2013-05-22 04:01:00,56.7,51.0,29.73,NW,315,1.1,4.0,81,0.00,,,0.00,WUHU216HW,2013-05-22 09:01:00,
2013-05-22 04:06:00,56.5,51.0,29.73,West,270,1.3,2.5,82,0.00,,,0.00,WUHU216HW,2013-05-22 09:06:00,
2013-05-22 04:11:00,56.3,50.6,29.73,West,270,0.0,1.8,81,0.00,,,0.00,WUHU216HW,2013-05-22 09:11:00,
2013-05-22 04:16:00,55.8,50.3,29.73,WNW,293,1.8,1.8,82,0.00,,,0.00,WUHU216HW,2013-05-22 09:16:00,
2013-05-22 04:21:00,55.6,50.1,29.73,WNW,293,1.3,1.8,82,0.00,,,0.00,WUHU216HW,2013-05-22 09:21:00,
2013-05-22 04:26:00,55.4,50.0,29.74,WNW,293,1.3,2.2,82,0.00,,,0.00,WUHU216HW,2013-05-22 09:26:00,
2013-05-22 04:31:00,55.1,49.7,29.73,NW,315,1.3,2.2,82,0.00,,,0.00,WUHU216HW,2013-05-22 09:31:00,
2013-05-22 04:36:00,55.1,50.0,29.73,NW,315,2.9,2.9,83,0.00,,,0.00,WUHU216HW,2013-05-22 09:36:00,
2013-05-22 04:41:00,55.1,49.7,29.73,NW,315,3.8,3.8,82,0.00,,,0.00,WUHU216HW,2013-05-22 09:41:00,
2013-05-22 04:46:00,55.4,50.0,29.73,NW,315,1.8,3.8,82,0.00,,,0.00,WUHU216HW,2013-05-22 09:46:00,
2013-05-22 04:51:00,55.3,49.5,29.73,WNW,293,0.4,2.2,81,0.00,,,0.00,WUHU216HW,2013-05-22 09:51:00,
2013-05-22 04:56:00,54.9,49.8,29.73,West,270,1.1,1.1,83,0.00,,,0.00,WUHU216HW,2013-05-22 09:56:00,
2013-05-22 05:01:00,54.5,49.1,29.73,West,270,1.1,1.8,82,0.00,,,0.00,WUHU216HW,2013-05-22 10:01:00,
2013-05-22 05:06:00,54.5,49.8,29.73,NNW,338,1.6,1.8,84,0.00,,,0.00,WUHU216HW,2013-05-22 10:06:00,
2013-05-22 05:11:00,54.5,49.8,29.74,West,270,2.0,2.2,84,0.00,,,0.00,WUHU216HW,2013-05-22 10:11:00,
2013-05-22 05:16:00,54.7,49.6,29.74,NW,315,1.3,2.5,83,0.00,,,0.00,WUHU216HW,2013-05-22 10:16:00,
2013-05-22 05:21:00,54.9,49.5,29.74,NW,315,2.5,3.1,82,0.00,,,0.00,WUHU216HW,2013-05-22 10:21:00,
2013-05-22 05:26:00,55.1,49.7,29.74,West,270,1.3,3.1,82,0.00,,,0.00,WUHU216HW,2013-05-22 10:26:00,
2013-05-22 05:31:00,54.9,49.8,29.75,WNW,293,2.5,2.7,83,0.00,,,0.00,WUHU216HW,2013-05-22 10:31:00,
2013-05-22 05:36:00,54.9,49.8,29.74,West,270,2.5,2.7,83,0.00,,,0.00,WUHU216HW,2013-05-22 10:36:00,
2013-05-22 05:41:00,54.9,50.1,29.74,West,270,3.4,3.4,84,0.00,,,0.00,WUHU216HW,2013-05-22 10:41:00,
2013-05-22 05:46:00,54.9,50.1,29.74,WNW,293,3.4,3.4,84,0.00,,,0.00,WUHU216HW,2013-05-22 10:46:00,
2013-05-22 05:51:00,54.7,50.0,29.74,NW,315,2.2,4.0,84,0.00,,,0.00,WUHU216HW,2013-05-22 10:51:00,
2013-05-22 05:56:00,54.4,49.6,29.74,West,270,2.2,4.0,84,0.00,,,0.00,WUHU216HW,2013-05-22 10:56:00,
2013-05-22 06:01:00,54.4,49.6,29.75,WNW,293,2.5,4.3,84,0.00,,,0.00,WUHU216HW,2013-05-22 11:01:00,
2013-05-22 06:06:00,54.2,49.4,29.75,WNW,293,3.8,4.7,84,0.00,,,0.00,WUHU216HW,2013-05-22 11:06:00,
2013-05-22 06:11:00,54.2,49.4,29.75,West,270,4.5,5.1,84,0.00,,,0.00,WUHU216HW,2013-05-22 11:11:00,
2013-05-22 06:16:00,54.0,49.2,29.75,West,270,4.7,5.4,84,0.00,,,0.00,WUHU216HW,2013-05-22 11:16:00,
2013-05-22 06:21:00,53.8,49.1,29.75,WNW,293,4.9,5.4,84,0.00,,,0.00,WUHU216HW,2013-05-22 11:21:00,
2013-05-22 06:26:00,53.6,49.0,29.75,WSW,248,6.0,6.0,84,0.00,,,0.00,WUHU216HW,2013-05-22 11:26:00,
2013-05-22 06:31:00,53.6,49.0,29.75,NW,315,3.1,6.0,84,0.00,,,0.00,WUHU216HW,2013-05-22 11:31:00,
2013-05-22 06:36:00,53.5,48.4,29.75,West,270,3.6,6.3,83,0.00,,,0.00,WUHU216HW,2013-05-22 11:36:00,
2013-05-22 06:41:00,53.3,48.2,29.76,WNW,293,6.9,6.9,83,0.00,,,0.00,WUHU216HW,2013-05-22 11:41:00,
2013-05-22 06:46:00,53.3,48.2,29.76,West,270,5.4,7.6,83,0.00,,,0.00,WUHU216HW,2013-05-22 11:46:00,
2013-05-22 06:51:00,53.3,48.0,29.77,WNW,293,9.4,9.4,82,0.00,,,0.00,WUHU216HW,2013-05-22 11:51:00,
2013-05-22 06:56:00,53.6,48.3,29.77,NW,315,7.8,9.4,82,0.00,,,0.00,WUHU216HW,2013-05-22 11:56:00,
2013-05-22 07:01:00,54.9,48.5,29.77,West,270,9.2,9.2,79,0.00,,,0.00,WUHU216HW,2013-05-22 12:01:00,
2013-05-22 07:06:00,55.8,49.0,29.77,WNW,293,8.1,9.2,78,0.00,,,0.00,WUHU216HW,2013-05-22 12:06:00,
2013-05-22 07:10:00,56.7,49.1,29.77,West,270,6.3,8.7,76,0.00,,,0.00,WUHU216HW,2013-05-22 12:10:00,
2013-05-22 07:15:00,57.4,49.1,29.77,NW,315,7.6,8.1,74,0.00,,,0.00,WUHU216HW,2013-05-22 12:15:00,
2013-05-22 07:20:00,57.1,48.8,29.77,WNW,293,5.4,8.9,74,0.00,,,0.00,WUHU216HW,2013-05-22 12:20:00,
2013-05-22 07:25:00,57.1,48.8,29.77,NW,315,6.7,8.9,74,0.00,,,0.00,WUHU216HW,2013-05-22 12:25:00,
2013-05-22 07:30:00,57.4,48.8,29.77,NW,315,10.5,10.5,73,0.00,,,0.00,WUHU216HW,2013-05-22 12:30:00,
2013-05-22 07:35:00,57.6,49.0,29.77,WNW,293,6.0,10.5,73,0.00,,,0.00,WUHU216HW,2013-05-22 12:35:00,
2013-05-22 07:40:00,58.0,49.0,29.77,North,0,5.6,7.8,72,0.00,,,0.00,WUHU216HW,2013-05-22 12:40:00,
2013-05-22 07:45:00,58.1,49.1,29.77,NW,315,7.4,11.9,72,0.00,,,0.00,WUHU216HW,2013-05-22 12:45:00,
2013-05-22 07:50:00,57.4,48.4,29.77,West,270,7.8,11.9,72,0.00,,,0.00,WUHU216HW,2013-05-22 12:50:00,
2013-05-22 07:55:00,58.0,49.0,29.77,WNW,293,8.3,10.7,72,0.00,,,0.00,WUHU216HW,2013-05-22 12:55:00,
2013-05-22 08:00:00,57.6,49.0,29.77,NW,315,9.2,9.2,73,0.00,,,0.00,WUHU216HW,2013-05-22 13:00:00,
2013-05-22 08:05:00,57.4,48.4,29.77,NNW,338,9.4,10.1,72,0.00,,,0.00,WUHU216HW,2013-05-22 13:05:00,
2013-05-22 08:10:00,57.4,48.8,29.77,NW,315,8.7,10.1,73,0.00,,,0.00,WUHU216HW,2013-05-22 13:10:00,
2013-05-22 08:15:00,57.1,48.4,29.78,NW,315,10.3,10.3,73,0.00,,,0.00,WUHU216HW,2013-05-22 13:15:00,
2013-05-22 08:20:00,58.3,49.7,29.78,North,0,7.6,10.5,73,0.00,,,0.00,WUHU216HW,2013-05-22 13:20:00,
2013-05-22 08:25:00,58.9,48.7,29.78,NNW,338,5.4,10.5,69,0.00,,,0.00,WUHU216HW,2013-05-22 13:25:00,
2013-05-22 08:30:00,58.7,49.0,29.78,NW,315,10.1,10.1,70,0.00,,,0.00,WUHU216HW,2013-05-22 13:30:00,
2013-05-22 08:35:00,57.6,48.6,29.79,WNW,293,13.0,13.0,72,0.00,,,0.00,WUHU216HW,2013-05-22 13:35:00,
2013-05-22 08:40:00,57.6,48.2,29.79,NNW,338,6.0,13.0,71,0.00,,,0.00,WUHU216HW,2013-05-22 13:40:00,
2013-05-22 08:45:00,57.8,48.8,29.79,WNW,293,8.3,12.8,72,0.00,,,0.00,WUHU216HW,2013-05-22 13:45:00,
2013-05-22 08:50:00,57.6,49.0,29.79,WNW,293,8.1,8.3,73,0.00,,,0.00,WUHU216HW,2013-05-22 13:50:00,
2013-05-22 08:55:00,58.3,49.3,29.80,WNW,293,10.5,10.5,72,0.00,,,0.00,WUHU216HW,2013-05-22 13:55:00,
2013-05-22 09:00:00,59.6,49.9,29.80,WNW,293,5.4,10.5,70,0.00,,,0.00,WUHU216HW,2013-05-22 14:00:00,
2013-05-22 09:05:00,58.5,48.0,29.80,NW,315,9.4,10.5,68,0.00,,,0.00,WUHU216HW,2013-05-22 14:05:00,
2013-05-22 09:10:00,57.4,48.8,29.80,West,270,7.6,12.3,73,0.00,,,0.00,WUHU216HW,2013-05-22 14:10:00,
2013-05-22 09:15:00,57.2,48.2,29.80,West,270,5.8,12.3,72,0.00,,,0.00,WUHU216HW,2013-05-22 14:15:00,
2013-05-22 09:20:00,57.2,48.6,29.80,NW,315,7.6,11.0,73,0.00,,,0.00,WUHU216HW,2013-05-22 14:20:00,
2013-05-22 09:25:00,57.2,48.6,29.80,NW,315,6.9,7.6,73,0.00,,,0.00,WUHU216HW,2013-05-22 14:25:00,
2013-05-22 09:30:00,57.4,48.4,29.80,NW,315,10.5,11.2,72,0.00,,,0.00,WUHU216HW,2013-05-22 14:30:00,
2013-05-22 09:35:00,57.6,49.0,29.80,NW,315,5.4,11.2,73,0.00,,,0.00,WUHU216HW,2013-05-22 14:35:00,
2013-05-22 09:40:00,58.0,48.2,29.80,WNW,293,3.4,14.5,70,0.00,,,0.00,WUHU216HW,2013-05-22 14:40:00,
2013-05-22 09:45:00,58.0,48.2,29.80,NNW,338,5.1,14.5,70,0.00,,,0.00,WUHU216HW,2013-05-22 14:45:00,
2013-05-22 09:50:00,58.5,49.1,29.80,NW,315,7.4,10.3,71,0.00,,,0.00,WUHU216HW,2013-05-22 14:50:00,
2013-05-22 09:55:00,58.9,49.1,29.80,WNW,293,12.3,12.3,70,0.00,,,0.00,WUHU216HW,2013-05-22 14:55:00,
2013-05-22 10:00:00,59.0,48.9,29.81,NNW,338,7.4,14.3,69,0.00,,,0.00,WUHU216HW,2013-05-22 15:00:00,
2013-05-22 10:05:00,59.0,48.5,29.81,West,270,7.8,14.3,68,0.00,,,0.00,WUHU216HW,2013-05-22 15:05:00,
2013-05-22 10:10:00,59.0,48.9,29.81,NW,315,4.3,7.8,69,0.00,,,0.00,WUHU216HW,2013-05-22 15:10:00,
2013-05-22 10:15:00,59.4,49.2,29.81,NW,315,5.4,6.7,69,0.00,,,0.00,WUHU216HW,2013-05-22 15:15:00,
2013-05-22 10:20:00,59.0,48.9,29.81,NNW,338,4.3,9.2,69,0.00,,,0.00,WUHU216HW,2013-05-22 15:20:00,
2013-05-22 10:25:00,59.4,48.9,29.81,NNW,338,7.2,9.2,68,0.00,,,0.00,WUHU216HW,2013-05-22 15:25:00,
2013-05-22 10:30:00,59.4,48.4,29.81,WNW,293,6.9,12.3,67,0.00,,,0.00,WUHU216HW,2013-05-22 15:30:00,
2013-05-22 10:35:00,59.8,49.6,29.81,NW,315,8.3,12.3,69,0.00,,,0.00,WUHU216HW,2013-05-22 15:35:00,
2013-05-22 10:40:00,59.8,48.8,29.81,NNW,338,9.2,9.2,67,0.00,,,0.00,WUHU216HW,2013-05-22 15:40:00,
2013-05-22 10:45:00,60.1,49.1,29.81,WNW,293,5.8,9.2,67,0.00,,,0.00,WUHU216HW,2013-05-22 15:45:00,
2013-05-22 10:50:00,59.9,48.6,29.81,NW,315,5.4,9.2,66,0.00,,,0.00,WUHU216HW,2013-05-22 15:50:00,
2013-05-22 10:55:00,60.3,49.0,29.82,NNW,338,7.2,8.5,66,0.00,,,0.00,WUHU216HW,2013-05-22 15:55:00,
2013-05-22 11:00:00,60.8,49.9,29.82,WNW,293,5.6,7.6,67,0.00,,,0.00,WUHU216HW,2013-05-22 16:00:00,
2013-05-22 11:05:00,61.2,49.8,29.82,NW,315,3.8,7.6,66,0.00,,,0.00,WUHU216HW,2013-05-22 16:05:00,
2013-05-22 11:10:00,61.6,49.7,29.82,NNW,338,9.2,9.2,65,0.00,,,0.00,WUHU216HW,2013-05-22 16:10:00,
2013-05-22 11:15:00,61.7,50.7,29.82,WNW,293,11.4,11.4,67,0.00,,,0.00,WUHU216HW,2013-05-22 16:15:00,
2013-05-22 11:20:00,62.3,49.5,29.82,NW,315,8.7,11.4,63,0.00,,,0.00,WUHU216HW,2013-05-22 16:20:00,
2013-05-22 11:25:00,61.9,50.1,29.82,NW,315,6.9,11.4,65,0.00,,,0.00,WUHU216HW,2013-05-22 16:25:00,
2013-05-22 11:30:00,61.9,50.4,29.82,NW,315,6.3,8.9,66,0.00,,,0.00,WUHU216HW,2013-05-22 16:30:00,
2013-05-22 11:35:00,62.6,50.7,29.83,North,0,6.9,10.7,65,0.00,,,0.00,WUHU216HW,2013-05-22 16:35:00,
2013-05-22 11:40:00,63.0,51.0,29.82,North,0,2.5,10.7,65,0.00,,,0.00,WUHU216HW,2013-05-22 16:40:00,
2013-05-22 11:45:00,63.0,51.0,29.83,North,0,8.5,8.5,65,0.00,,,0.00,WUHU216HW,2013-05-22 16:45:00,
2013-05-22 11:50:00,63.4,50.1,29.83,NW,315,8.1,8.5,62,0.00,,,0.00,WUHU216HW,2013-05-22 16:50:00,
2013-05-22 11:55:00,63.4,50.5,29.83,West,270,4.0,8.5,63,0.00,,,0.00,WUHU216HW,2013-05-22 16:55:00,
2013-05-22 12:00:00,63.0,50.6,29.83,NNW,338,8.7,9.4,64,0.00,,,0.00,WUHU216HW,2013-05-22 17:00:00,
2013-05-22 12:05:00,62.8,50.4,29.83,NNW,338,5.6,9.4,64,0.00,,,0.00,WUHU216HW,2013-05-22 17:05:00,
2013-05-22 12:10:00,63.0,51.0,29.83,NW,315,6.3,9.2,65,0.00,,,0.00,WUHU216HW,2013-05-22 17:10:00,
2013-05-22 12:15:00,63.2,50.3,29.83,NW,315,4.0,8.3,63,0.00,,,0.00,WUHU216HW,2013-05-22 17:15:00,
2013-05-22 12:20:00,63.5,50.7,29.83,NNE,23,2.7,8.3,63,0.00,,,0.00,WUHU216HW,2013-05-22 17:20:00,
2013-05-22 12:25:00,63.7,51.3,29.83,NW,315,6.3,6.3,64,0.00,,,0.00,WUHU216HW,2013-05-22 17:25:00,
2013-05-22 12:30:00,63.5,50.7,29.83,NW,315,7.6,7.6,63,0.00,,,0.00,WUHU216HW,2013-05-22 17:30:00,
2013-05-22 12:35:00,63.5,51.1,29.83,NW,315,8.1,8.1,64,0.00,,,0.00,WUHU216HW,2013-05-22 17:35:00,
2013-05-22 12:40:00,63.7,51.3,29.83,NNW,338,4.9,8.1,64,0.00,,,0.00,WUHU216HW,2013-05-22 17:40:00,
2013-05-22 12:45:00,64.1,51.2,29.83,WNW,293,8.5,8.5,63,0.00,,,0.00,WUHU216HW,2013-05-22 17:45:00,
2013-05-22 12:50:00,64.4,51.1,29.83,WNW,293,5.1,8.5,62,0.00,,,0.00,WUHU216HW,2013-05-22 17:50:00,
2013-05-22 12:55:00,64.6,52.1,29.83,WNW,293,5.6,7.6,64,0.00,,,0.00,WUHU216HW,2013-05-22 17:55:00,
2013-05-22 13:00:00,65.2,51.4,29.83,NW,315,3.6,7.6,61,0.00,,,0.00,WUHU216HW,2013-05-22 18:00:00,
2013-05-22 13:05:00,65.2,50.9,29.83,NNE,23,6.9,6.9,60,0.00,,,0.00,WUHU216HW,2013-05-22 18:05:00,
2013-05-22 13:10:00,65.2,51.4,29.83,NW,315,5.4,6.9,61,0.00,,,0.00,WUHU216HW,2013-05-22 18:10:00,
2013-05-22 13:15:00,65.5,52.6,29.83,West,270,3.8,6.9,63,0.00,,,0.00,WUHU216HW,2013-05-22 18:15:00,
2013-05-22 13:20:00,66.2,51.6,29.83,WNW,293,12.8,12.8,59,0.00,,,0.00,WUHU216HW,2013-05-22 18:20:00,
2013-05-22 13:25:00,65.7,51.0,29.83,WNW,293,6.3,12.8,59,0.00,,,0.00,WUHU216HW,2013-05-22 18:25:00,
2013-05-22 13:30:00,65.5,51.3,29.83,NNW,338,6.3,12.8,60,0.00,,,0.00,WUHU216HW,2013-05-22 18:30:00,
2013-05-22 13:35:00,65.7,51.5,29.84,West,270,6.5,6.5,60,0.00,,,0.00,WUHU216HW,2013-05-22 18:35:00,
2013-05-22 13:40:00,65.3,51.1,29.83,NW,315,7.2,9.8,60,0.00,,,0.00,WUHU216HW,2013-05-22 18:40:00,
2013-05-22 13:45:00,65.0,51.6,29.84,NW,315,9.2,9.8,62,0.00,,,0.00,WUHU216HW,2013-05-22 18:45:00,
2013-05-22 13:50:00,65.0,50.8,29.83,WNW,293,5.4,9.2,60,0.00,,,0.00,WUHU216HW,2013-05-22 18:50:00,
2013-05-22 13:55:00,65.5,51.3,29.83,NW,315,11.2,11.2,60,0.00,,,0.00,WUHU216HW,2013-05-22 18:55:00,
2013-05-22 14:00:00,65.2,51.4,29.83,North,0,6.0,11.2,61,0.00,,,0.00,WUHU216HW,2013-05-22 19:00:00,
2013-05-22 14:05:00,65.3,51.1,29.83,WNW,293,8.3,11.2,60,0.00,,,0.00,WUHU216HW,2013-05-22 19:05:00,
2013-05-22 14:10:00,65.5,51.8,29.83,NW,315,6.3,8.3,61,0.00,,,0.00,WUHU216HW,2013-05-22 19:10:00,
2013-05-22 14:14:00,65.5,51.8,29.83,WSW,248,6.9,8.3,61,0.00,,,0.00,WUHU216HW,2013-05-22 19:14:00,
2013-05-22 14:19:00,65.9,52.1,29.83,NNW,338,6.9,6.9,61,0.00,,,0.00,WUHU216HW,2013-05-22 19:19:00,
2013-05-22 14:24:00,66.6,53.7,29.83,NW,315,6.9,6.9,63,0.00,,,0.00,WUHU216HW,2013-05-22 19:24:00,
2013-05-22 14:29:00,66.8,52.5,29.83,NW,315,10.3,13.6,60,0.00,,,0.00,WUHU216HW,2013-05-22 19:29:00,
2013-05-22 14:35:00,67.3,52.5,29.83,NW,315,11.0,13.6,59,0.00,,,0.00,WUHU216HW,2013-05-22 19:35:00,
2013-05-22 14:39:00,67.7,54.6,29.83,WNW,293,11.2,11.2,63,0.00,,,0.00,WUHU216HW,2013-05-22 19:39:00,
2013-05-22 14:45:00,67.5,52.7,29.83,NW,315,10.1,11.2,59,0.00,,,0.00,WUHU216HW,2013-05-22 19:45:00,
2013-05-22 14:49:00,67.3,52.0,29.83,WNW,293,6.9,10.1,58,0.00,,,0.00,WUHU216HW,2013-05-22 19:49:00,
2013-05-22 14:55:00,67.7,53.3,29.83,WNW,293,9.2,10.1,60,0.00,,,0.00,WUHU216HW,2013-05-22 19:55:00,
2013-05-22 15:00:00,67.7,51.8,29.83,WNW,293,3.6,9.2,57,0.00,,,0.00,WUHU216HW,2013-05-22 20:00:00,
2013-05-22 15:05:00,67.7,52.8,29.83,NW,315,7.8,7.8,59,0.00,,,0.00,WUHU216HW,2013-05-22 20:05:00,
2013-05-22 15:10:00,67.3,52.5,29.83,NW,315,7.6,8.3,59,0.00,,,0.00,WUHU216HW,2013-05-22 20:10:00,
2013-05-22 15:15:00,68.0,53.2,29.83,West,270,6.3,8.3,59,0.00,,,0.00,WUHU216HW,2013-05-22 20:15:00,
2013-05-22 15:20:00,69.5,51.6,29.83,WNW,293,6.9,7.6,53,0.00,,,0.00,WUHU216HW,2013-05-22 20:20:00,
2013-05-22 15:25:00,68.2,52.4,29.82,West,270,7.8,8.5,57,0.00,,,0.00,WUHU216HW,2013-05-22 20:25:00,
2013-05-22 15:30:00,68.0,52.7,29.82,WSW,248,4.5,8.9,58,0.00,,,0.00,WUHU216HW,2013-05-22 20:30:00,
2013-05-22 15:35:00,69.5,53.1,29.82,NNW,338,4.7,9.8,56,0.00,,,0.00,WUHU216HW,2013-05-22 20:35:00,
2013-05-22 15:40:00,68.8,52.4,29.82,WNW,293,4.5,9.8,56,0.00,,,0.00,WUHU216HW,2013-05-22 20:40:00,
2013-05-22 15:45:00,68.6,51.8,29.82,West,270,8.5,9.6,55,0.00,,,0.00,WUHU216HW,2013-05-22 20:45:00,
2013-05-22 15:50:00,67.9,52.0,29.82,NW,315,8.1,9.6,57,0.00,,,0.00,WUHU216HW,2013-05-22 20:50:00,
2013-05-22 15:55:00,67.3,52.5,29.82,NW,315,10.1,10.1,59,0.00,,,0.00,WUHU216HW,2013-05-22 20:55:00,
2013-05-22 16:00:00,67.5,51.7,29.82,NNW,338,3.1,10.1,57,0.00,,,0.00,WUHU216HW,2013-05-22 21:00:00,
2013-05-22 16:05:00,67.9,51.6,29.82,North,0,8.5,8.5,56,0.00,,,0.00,WUHU216HW,2013-05-22 21:05:00,
2013-05-22 16:10:00,68.9,52.6,29.82,West,270,7.2,8.5,56,0.00,,,0.00,WUHU216HW,2013-05-22 21:10:00,
2013-05-22 16:15:00,68.4,52.0,29.82,West,270,4.7,8.5,56,0.00,,,0.00,WUHU216HW,2013-05-22 21:15:00,
2013-05-22 16:20:00,68.2,52.4,29.82,NW,315,8.5,8.5,57,0.00,,,0.00,WUHU216HW,2013-05-22 21:20:00,
2013-05-22 16:25:00,68.8,52.9,29.82,NNW,338,10.1,10.1,57,0.00,,,0.00,WUHU216HW,2013-05-22 21:25:00,
2013-05-22 16:30:00,68.8,53.4,29.82,WSW,248,5.8,10.1,58,0.00,,,0.00,WUHU216HW,2013-05-22 21:30:00,
2013-05-22 16:35:00,68.8,51.4,29.82,NW,315,3.4,6.3,54,0.00,,,0.00,WUHU216HW,2013-05-22 21:35:00,
2013-05-22 16:40:00,69.1,53.2,29.82,NW,315,4.9,5.4,57,0.00,,,0.00,WUHU216HW,2013-05-22 21:40:00,
2013-05-22 16:45:00,69.3,52.9,29.82,NW,315,6.9,9.6,56,0.00,,,0.00,WUHU216HW,2013-05-22 21:45:00,
2013-05-22 16:50:00,69.5,53.1,29.82,West,270,5.8,9.6,56,0.00,,,0.00,WUHU216HW,2013-05-22 21:50:00,
2013-05-22 16:54:00,70.4,53.9,29.82,West,270,10.1,10.1,56,0.00,,,0.00,WUHU216HW,2013-05-22 21:54:00,
2013-05-22 17:00:00,70.4,52.9,29.82,West,270,4.7,10.1,54,0.00,,,0.00,WUHU216HW,2013-05-22 22:00:00,
2013-05-22 17:04:00,70.0,52.6,29.82,NW,315,4.3,10.1,54,0.00,,,0.00,WUHU216HW,2013-05-22 22:04:00,
2013-05-22 17:09:00,69.8,52.4,29.82,West,270,3.4,6.3,54,0.00,,,0.00,WUHU216HW,2013-05-22 22:09:00,
2013-05-22 17:14:00,69.8,52.4,29.82,WNW,293,9.2,9.2,54,0.00,,,0.00,WUHU216HW,2013-05-22 22:14:00,
2013-05-22 17:19:00,69.1,52.8,29.82,NW,315,4.3,9.2,56,0.00,,,0.00,WUHU216HW,2013-05-22 22:19:00,
2013-05-22 17:24:00,68.8,53.4,29.82,WNW,293,5.8,9.2,58,0.00,,,0.00,WUHU216HW,2013-05-22 22:24:00,
2013-05-22 17:29:00,69.1,53.7,29.82,NW,315,5.1,6.5,58,0.00,,,0.00,WUHU216HW,2013-05-22 22:29:00,
2013-05-22 17:34:00,69.8,53.9,29.82,WNW,293,7.6,7.6,57,0.00,,,0.00,WUHU216HW,2013-05-22 22:34:00,
2013-05-22 17:39:00,69.5,52.6,29.82,NW,315,6.7,13.9,55,0.00,,,0.00,WUHU216HW,2013-05-22 22:39:00,
2013-05-22 17:44:00,69.5,53.1,29.82,West,270,2.7,13.9,56,0.00,,,0.00,WUHU216HW,2013-05-22 22:44:00,
2013-05-22 17:49:00,69.5,53.1,29.82,WNW,293,5.4,9.6,56,0.00,,,0.00,WUHU216HW,2013-05-22 22:49:00,
2013-05-22 17:54:00,69.1,51.8,29.82,North,0,6.7,9.6,54,0.00,,,0.00,WUHU216HW,2013-05-22 22:54:00,
2013-05-22 17:59:00,68.6,52.8,29.82,WNW,293,4.7,6.9,57,0.00,,,0.00,WUHU216HW,2013-05-22 22:59:00,
2013-05-22 18:04:00,69.7,53.7,29.81,NW,315,5.8,6.9,57,0.00,,,0.00,WUHU216HW,2013-05-22 23:04:00,
2013-05-22 18:09:00,70.2,53.3,29.81,NNE,23,2.5,5.8,55,0.00,,,0.00,WUHU216HW,2013-05-22 23:09:00,
2013-05-22 18:14:00,69.8,52.4,29.82,WNW,293,3.1,5.8,54,0.00,,,0.00,WUHU216HW,2013-05-22 23:14:00,
2013-05-22 18:19:00,70.2,53.3,29.82,NNW,338,3.4,3.6,55,0.00,,,0.00,WUHU216HW,2013-05-22 23:19:00,
2013-05-22 18:24:00,69.8,52.9,29.82,NNW,338,4.0,4.0,55,0.00,,,0.00,WUHU216HW,2013-05-22 23:24:00,
2013-05-22 18:29:00,69.5,52.6,29.82,NNW,338,6.3,6.3,55,0.00,,,0.00,WUHU216HW,2013-05-22 23:29:00,
2013-05-22 18:34:00,69.1,52.2,29.82,WNW,293,8.3,8.3,55,0.00,,,0.00,WUHU216HW,2013-05-22 23:34:00,
2013-05-22 18:39:00,69.8,52.9,29.82,NW,315,9.6,9.6,55,0.00,,,0.00,WUHU216HW,2013-05-22 23:39:00,
2013-05-22 18:44:00,69.5,52.6,29.82,West,270,2.0,9.6,55,0.00,,,0.00,WUHU216HW,2013-05-22 23:44:00,
2013-05-22 18:49:00,70.7,53.2,29.82,WNW,293,4.0,9.6,54,0.00,,,0.00,WUHU216HW,2013-05-22 23:49:00,
2013-05-22 18:54:00,70.9,53.9,29.82,NW,315,4.9,5.6,55,0.00,,,0.00,WUHU216HW,2013-05-22 23:54:00,
2013-05-22 18:59:00,70.7,53.7,29.82,ESE,113,4.7,7.8,55,0.00,,,0.00,WUHU216HW,2013-05-22 23:59:00,
2013-05-22 19:04:00,71.3,53.7,29.82,NW,315,7.2,7.8,54,0.00,,,0.00,WUHU216HW,2013-05-23 00:04:00,
2013-05-22 19:09:00,70.4,52.9,29.83,NW,315,6.9,7.2,54,0.00,,,0.00,WUHU216HW,2013-05-23 00:09:00,
2013-05-22 19:14:00,70.6,53.6,29.83,NW,315,5.6,6.9,55,0.00,,,0.00,WUHU216HW,2013-05-23 00:14:00,
2013-05-22 19:19:00,70.0,53.1,29.83,WNW,293,4.0,5.6,55,0.00,,,0.00,WUHU216HW,2013-05-23 00:19:00,
2013-05-22 19:24:00,68.9,52.6,29.83,NW,315,5.4,5.6,56,0.00,,,0.00,WUHU216HW,2013-05-23 00:24:00,
2013-05-22 19:29:00,68.0,52.2,29.83,SW,225,4.3,5.4,57,0.00,,,0.00,WUHU216HW,2013-05-23 00:29:00,
2013-05-22 19:34:00,67.9,52.0,29.83,NW,315,9.2,9.2,57,0.00,,,0.00,WUHU216HW,2013-05-23 00:34:00,
2013-05-22 19:39:00,67.5,53.2,29.83,WNW,293,3.6,9.2,60,0.00,,,0.00,WUHU216HW,2013-05-23 00:39:00,
2013-05-22 19:44:00,67.3,53.0,29.84,NW,315,5.1,5.4,60,0.00,,,0.00,WUHU216HW,2013-05-23 00:44:00,
2013-05-22 19:49:00,67.1,52.8,29.84,NW,315,3.4,5.1,60,0.00,,,0.00,WUHU216HW,2013-05-23 00:49:00,
2013-05-22 19:54:00,67.0,52.7,29.84,NW,315,3.6,3.8,60,0.00,,,0.00,WUHU216HW,2013-05-23 00:54:00,
2013-05-22 19:59:00,67.0,52.7,29.84,NNW,338,2.5,3.6,60,0.00,,,0.00,WUHU216HW,2013-05-23 00:59:00,
2013-05-22 20:04:00,67.0,52.7,29.84,NNW,338,3.4,3.6,60,0.00,,,0.00,WUHU216HW,2013-05-23 01:04:00,
2013-05-22 20:09:00,67.0,52.7,29.84,NNW,338,3.8,3.8,60,0.00,,,0.00,WUHU216HW,2013-05-23 01:09:00,
2013-05-22 20:14:00,67.1,52.4,29.85,NNW,338,2.9,4.5,59,0.00,,,0.00,WUHU216HW,2013-05-23 01:14:00,
2013-05-22 20:19:00,66.6,52.4,29.85,NW,315,0.7,4.5,60,0.00,,,0.00,WUHU216HW,2013-05-23 01:19:00,
2013-05-22 20:24:00,66.4,52.6,29.85,North,0,1.3,2.9,61,0.00,,,0.00,WUHU216HW,2013-05-23 01:24:00,
2013-05-22 20:29:00,65.5,52.1,29.86,NNE,23,2.9,2.9,62,0.00,,,0.00,WUHU216HW,2013-05-23 01:29:00,
2013-05-22 20:34:00,65.2,52.2,29.86,NW,315,2.2,2.9,63,0.00,,,0.00,WUHU216HW,2013-05-23 01:34:00,
2013-05-22 20:39:00,64.8,52.8,29.86,NNW,338,0.9,2.2,65,0.00,,,0.00,WUHU216HW,2013-05-23 01:39:00,
2013-05-22 20:44:00,64.4,52.4,29.86,NNE,23,2.0,2.2,65,0.00,,,0.00,WUHU216HW,2013-05-23 01:44:00,
2013-05-22 20:49:00,64.6,52.6,29.87,NNE,23,0.7,2.0,65,0.00,,,0.00,WUHU216HW,2013-05-23 01:49:00,
2013-05-22 20:54:00,64.4,52.8,29.87,North,0,0.9,2.0,66,0.00,,,0.00,WUHU216HW,2013-05-23 01:54:00,
2013-05-22 20:59:00,64.3,52.2,29.87,North,0,0.7,1.1,65,0.00,,,0.00,WUHU216HW,2013-05-23 01:59:00,
2013-05-22 21:04:00,63.7,52.1,29.87,NNW,338,0.7,0.9,66,0.00,,,0.00,WUHU216HW,2013-05-23 02:04:00,
2013-05-22 21:09:00,63.2,51.6,29.87,North,0,0.0,1.1,66,0.00,,,0.00,WUHU216HW,2013-05-23 02:09:00,
2013-05-22 21:14:00,62.8,52.1,29.87,North,0,0.4,1.1,68,0.00,,,0.00,WUHU216HW,2013-05-23 02:14:00,
2013-05-22 21:19:00,61.7,51.5,29.88,North,0,0.0,0.4,69,0.00,,,0.00,WUHU216HW,2013-05-23 02:19:00,
2013-05-22 21:24:00,61.2,51.0,29.88,North,0,0.4,0.4,69,0.00,,,0.00,WUHU216HW,2013-05-23 02:24:00,
2013-05-22 21:29:00,60.7,51.7,29.88,NNE,23,4.0,4.0,72,0.00,,,0.00,WUHU216HW,2013-05-23 02:29:00,
2013-05-22 21:34:00,61.0,51.7,29.88,NNE,23,4.7,4.7,71,0.00,,,0.00,WUHU216HW,2013-05-23 02:34:00,
2013-05-22 21:39:00,61.4,51.6,29.88,NNE,23,2.5,4.7,70,0.00,,,0.00,WUHU216HW,2013-05-23 02:39:00,
2013-05-22 21:44:00,61.6,51.8,29.89,NE,45,1.1,4.7,70,0.00,,,0.00,WUHU216HW,2013-05-23 02:44:00,
2013-05-22 21:49:00,61.4,51.6,29.89,NNE,23,1.8,2.7,70,0.00,,,0.00,WUHU216HW,2013-05-23 02:49:00,
2013-05-22 21:54:00,61.4,51.6,29.89,NNE,23,1.1,1.8,70,0.00,,,0.00,WUHU216HW,2013-05-23 02:54:00,
2013-05-22 21:59:00,60.8,51.1,29.90,North,0,1.8,1.8,70,0.00,,,0.00,WUHU216HW,2013-05-23 02:59:00,
2013-05-22 22:04:00,60.8,51.5,29.90,NNE,23,2.2,2.2,71,0.00,,,0.00,WUHU216HW,2013-05-23 03:04:00,
2013-05-22 22:09:00,60.7,51.3,29.90,North,0,1.1,2.2,71,0.00,,,0.00,WUHU216HW,2013-05-23 03:09:00,
2013-05-22 22:14:00,60.5,51.8,29.90,North,0,1.1,2.2,73,0.00,,,0.00,WUHU216HW,2013-05-23 03:14:00,
2013-05-22 22:19:00,59.9,52.0,29.90,North,0,0.7,1.1,75,0.00,,,0.00,WUHU216HW,2013-05-23 03:19:00,
2013-05-22 22:24:00,59.2,51.7,29.91,NNW,338,0.0,0.7,76,0.00,,,0.00,WUHU216HW,2013-05-23 03:24:00,
2013-05-22 22:29:00,58.9,51.3,29.91,NNE,23,0.9,1.1,76,0.00,,,0.00,WUHU216HW,2013-05-23 03:29:00,
2013-05-22 22:34:00,58.7,51.5,29.91,North,0,0.9,1.1,77,0.00,,,0.00,WUHU216HW,2013-05-23 03:34:00,
2013-05-22 22:39:00,58.5,51.3,29.91,North,0,0.0,0.9,77,0.00,,,0.00,WUHU216HW,2013-05-23 03:39:00,
2013-05-22 22:44:00,58.1,51.7,29.92,North,0,0.7,0.9,79,0.00,,,0.00,WUHU216HW,2013-05-23 03:44:00,
2013-05-22 22:49:00,58.1,51.7,29.92,North,0,0.4,1.8,79,0.00,,,0.00,WUHU216HW,2013-05-23 03:49:00,
2013-05-22 22:54:00,58.3,51.5,29.92,NE,45,0.7,2.7,78,0.00,,,0.00,WUHU216HW,2013-05-23 03:54:00,
2013-05-22 22:59:00,58.7,51.8,29.92,North,0,1.3,2.7,78,0.00,,,0.00,WUHU216HW,2013-05-23 03:59:00,
2013-05-22 23:01:00,58.7,51.5,29.92,NNE,23,0.9,2.7,77,0.00,,,0.00,WUHU216HW,2013-05-23 04:01:00,
2013-05-22 23:06:00,59.2,51.7,29.92,North,0,2.5,2.7,76,0.00,,,0.00,WUHU216HW,2013-05-23 04:06:00,
2013-05-22 23:11:00,59.4,51.8,29.92,NW,315,3.4,3.4,76,0.00,,,0.00,WUHU216HW,2013-05-23 04:11:00,
2013-05-22 23:16:00,59.6,52.0,29.93,North,0,2.5,5.1,76,0.00,,,0.00,WUHU216HW,2013-05-23 04:16:00,
2013-05-22 23:21:00,59.4,51.5,29.93,North,0,2.2,5.1,75,0.00,,,0.00,WUHU216HW,2013-05-23 04:21:00,
2013-05-22 23:26:00,59.2,51.7,29.93,North,0,2.2,3.4,76,0.00,,,0.00,WUHU216HW,2013-05-23 04:26:00,
2013-05-22 23:31:00,59.2,51.7,29.93,NNE,23,4.0,4.0,76,0.00,,,0.00,WUHU216HW,2013-05-23 04:31:00,
2013-05-22 23:36:00,59.0,51.5,29.93,North,0,3.4,4.0,76,0.00,,,0.00,WUHU216HW,2013-05-23 04:36:00,
2013-05-22 23:41:00,58.9,50.9,29.93,NNE,23,1.6,4.7,75,0.00,,,0.00,WUHU216HW,2013-05-23 04:41:00,
2013-05-22 23:46:00,58.9,51.3,29.93,North,0,3.1,4.7,76,0.00,,,0.00,WUHU216HW,2013-05-23 04:46:00,
2013-05-22 23:51:00,58.7,50.8,29.93,NNE,23,2.5,3.1,75,0.00,,,0.00,WUHU216HW,2013-05-23 04:51:00,
2013-05-22 23:56:00,58.3,50.8,29.93,North,0,1.8,3.1,76,0.00,,,0.00,WUHU216HW,2013-05-23 04:56:00,